createdAt,value
2022-12-01T00:18:13.974Z,2.92
2022-12-01T00:58:14.131Z,3.03
2022-12-01T01:18:14.165Z,3.06
2022-12-01T01:38:14.160Z,3.09
2022-12-01T01:58:14.166Z,3.12
2022-12-01T02:18:14.326Z,3.18
2022-12-01T02:38:14.238Z,3.25
2022-12-01T02:58:14.368Z,3.35
2022-12-01T03:18:14.398Z,3.38
2022-12-01T03:38:14.462Z,3.39
2022-12-01T03:58:14.394Z,3.43
2022-12-01T04:18:14.545Z,3.45
2022-12-01T04:38:14.560Z,3.4
2022-12-01T04:58:14.568Z,2.89
2022-12-01T05:18:14.717Z,2.56
2022-12-01T05:38:14.743Z,2.44
2022-12-01T05:58:15.082Z,2.5
2022-12-01T06:18:14.770Z,2.62
2022-12-01T06:38:14.836Z,2.73
2022-12-01T06:58:14.969Z,2.69
2022-12-01T07:18:14.915Z,2.8
2022-12-01T07:38:19.167Z,2.94
2022-12-01T07:58:15.103Z,3.16
2022-12-01T08:18:15.202Z,3.53
2022-12-01T08:38:15.465Z,3.77
2022-12-01T09:18:15.226Z,4.69
2022-12-01T09:38:15.284Z,4.94
2022-12-01T09:58:15.400Z,5.31
2022-12-01T10:18:15.381Z,5.63
2022-12-01T10:38:15.434Z,5.96
2022-12-01T10:58:15.422Z,6.04
2022-12-01T11:18:15.548Z,5.9
2022-12-01T11:38:30.200Z,5.87
2022-12-01T11:58:15.720Z,5.87
2022-12-01T12:18:16.190Z,6.01
2022-12-01T12:38:15.722Z,6.41
2022-12-01T12:58:15.681Z,6.44
2022-12-01T13:18:15.719Z,6.26
2022-12-01T13:38:15.842Z,6.27
2022-12-01T13:58:15.856Z,6.13
2022-12-01T14:18:15.943Z,5.91
2022-12-01T14:38:15.918Z,5.63
2022-12-01T14:58:15.966Z,5.22
2022-12-01T15:18:15.966Z,4.89
2022-12-01T15:38:16.169Z,4.71
2022-12-01T15:58:16.148Z,4.52
2022-12-01T16:18:16.149Z,4.33
2022-12-01T17:18:16.548Z,3.89
2022-12-01T17:38:16.481Z,3.83
2022-12-01T17:58:16.466Z,3.78
2022-12-01T18:18:16.454Z,3.78
2022-12-01T18:38:16.614Z,3.71
2022-12-01T18:58:16.694Z,3.45
2022-12-01T19:18:16.860Z,2.95
2022-12-01T19:38:16.625Z,2.59
2022-12-01T19:58:16.712Z,2.54
2022-12-01T20:18:16.703Z,2.56
2022-12-01T20:38:16.828Z,2.67
2022-12-01T20:58:16.789Z,2.62
2022-12-01T21:18:16.822Z,2.66
2022-12-01T21:38:21.718Z,2.66
2022-12-01T21:58:16.891Z,2.68
2022-12-01T22:18:16.986Z,2.59
2022-12-01T22:38:17.028Z,2.49
2022-12-01T22:58:17.070Z,2.57
2022-12-01T23:18:17.159Z,2.53
2022-12-01T23:38:17.143Z,2.28
2022-12-01T23:58:18.620Z,2.15
